This is the latest recevied weather packets stored in our database for station/object SR9NLI. If no packets are shown the sender has not sent any weather packets the latest 1 day(s).
| Time | Temp. | Humidity | Pressure | Rain* | Wind** | Luminosity | Snow |
|---|---|---|---|---|---|---|---|
| 1777974695 | 23.33° C | 100% | 951.6 hPa | - | 1.34 m/s, 203° | - | - |
| 1777974572 | 23.33° C | 100% | 951.4 hPa | - | 1.79 m/s, 191° | - | - |
| 1777974512 | 23.33° C | 100% | 951.6 hPa | - | 1.79 m/s, 182° | - | - |
| 1777974449 | 23.33° C | 100% | 951.7 hPa | - | 2.24 m/s, 178° | - | - |
| 1777974326 | 22.78° C | 100% | 951.6 hPa | - | 2.24 m/s, 178° | - | - |
| 1777974203 | 23.33° C | 100% | 951.6 hPa | - | 2.68 m/s, 175° | - | - |
| 1777974143 | 22.78° C | 100% | 951.7 hPa | - | 2.68 m/s, 168° | - | - |
| 1777974080 | 22.78° C | 100% | 951.4 hPa | - | 3.13 m/s, 169° | - | - |
| 1777973957 | 23.33° C | 100% | 951.9 hPa | - | 2.24 m/s, 176° | - | - |
| 1777973834 | 23.33° C | 100% | 951.5 hPa | - | 2.24 m/s, 175° | - | - |
| 1777973774 | 22.78° C | 100% | 951.7 hPa | - | 4.47 m/s, 169° | - | - |
| 1777973711 | 22.78° C | 100% | 951.7 hPa | - | 4.92 m/s, 167° | - | - |
| 1777973589 | 22.78° C | 100% | 951.5 hPa | - | 5.81 m/s, 164° | - | - |
| 1777973465 | 22.22° C | 100% | 951.5 hPa | - | 4.92 m/s, 164° | - | - |
| 1777973405 | 22.78° C | 100% | 951.5 hPa | - | 3.58 m/s, 169° | - | - |
| 1777973343 | 22.78° C | 100% | 951.7 hPa | - | 2.68 m/s, 174° | - | - |
| 1777973220 | 22.78° C | 100% | 951.5 hPa | - | 2.24 m/s, 184° | - | - |
| 1777973096 | 22.78° C | 100% | 951.7 hPa | - | 3.58 m/s, 169° | - | - |
| 1777973035 | 22.78° C | 100% | 951.6 hPa | - | 4.02 m/s, 168° | - | - |
| 1777972973 | 22.78° C | 100% | 951.5 hPa | - | 3.58 m/s, 166° | - | - |
| 1777972849 | 22.78° C | 100% | 951.6 hPa | - | 3.13 m/s, 171° | - | - |
| 1777972726 | 23.89° C | 100% | 951.8 hPa | - | 1.79 m/s, 182° | - | - |
| 1777972666 | 23.33° C | 100% | 951.8 hPa | - | 1.34 m/s, 189° | - | - |
| 1777972604 | 23.33° C | 100% | 951.8 hPa | - | 0.89 m/s, 187° | - | - |
| 1777972480 | 23.33° C | 100% | 951.8 hPa | - | 1.34 m/s, 187° | - | - |
* Rain since midnight (hover to see other rain measurements)
** Current wind speed in m/s (hover to see current wind gust speed)